sensor_id;sensor_type;location;lat;lon;timestamp;temperature;humidity
21176;DHT22;10746;50.178;8.186;2023-06-14T00:00:37;14.30;99.90
21176;DHT22;10746;50.178;8.186;2023-06-14T00:03:06;14.30;99.90
21176;DHT22;10746;50.178;8.186;2023-06-14T00:05:33;14.30;99.90
21176;DHT22;10746;50.178;8.186;2023-06-14T00:08:05;14.30;99.90
21176;DHT22;10746;50.178;8.186;2023-06-14T00:10:33;14.30;99.90
21176;DHT22;10746;50.178;8.186;2023-06-14T00:13:00;14.30;99.90
21176;DHT22;10746;50.178;8.186;2023-06-14T00:15:27;14.30;99.90
21176;DHT22;10746;50.178;8.186;2023-06-14T00:17:54;14.10;99.90
21176;DHT22;10746;50.178;8.186;2023-06-14T00:20:22;14.20;99.90
21176;DHT22;10746;50.178;8.186;2023-06-14T00:22:48;14.30;99.90
21176;DHT22;10746;50.178;8.186;2023-06-14T00:25:17;14.20;99.90
21176;DHT22;10746;50.178;8.186;2023-06-14T00:27:43;14.20;99.90
21176;DHT22;10746;50.178;8.186;2023-06-14T00:30:11;13.90;99.90
21176;DHT22;10746;50.178;8.186;2023-06-14T00:32:38;13.80;99.90
21176;DHT22;10746;50.178;8.186;2023-06-14T00:35:05;13.80;99.90
21176;DHT22;10746;50.178;8.186;2023-06-14T00:37:33;13.90;99.90
21176;DHT22;10746;50.178;8.186;2023-06-14T00:40:00;13.90;99.90
21176;DHT22;10746;50.178;8.186;2023-06-14T00:42:28;14.00;99.90
21176;DHT22;10746;50.178;8.186;2023-06-14T00:44:55;14.00;99.90
21176;DHT22;10746;50.178;8.186;2023-06-14T00:47:22;13.90;99.90
21176;DHT22;10746;50.178;8.186;2023-06-14T00:49:50;14.10;99.90
21176;DHT22;10746;50.178;8.186;2023-06-14T00:52:18;14.00;99.90
21176;DHT22;10746;50.178;8.186;2023-06-14T00:54:45;14.10;99.90
21176;DHT22;10746;50.178;8.186;2023-06-14T00:57:12;14.10;99.90
21176;DHT22;10746;50.178;8.186;2023-06-14T00:59:43;14.00;99.90
21176;DHT22;10746;50.178;8.186;2023-06-14T01:02:10;14.00;99.90
21176;DHT22;10746;50.178;8.186;2023-06-14T01:04:38;14.10;99.90
21176;DHT22;10746;50.178;8.186;2023-06-14T01:07:10;14.10;99.90
21176;DHT22;10746;50.178;8.186;2023-06-14T01:09:47;13.90;99.90
21176;DHT22;10746;50.178;8.186;2023-06-14T01:12:23;13.80;99.90
21176;DHT22;10746;50.178;8.186;2023-06-14T01:14:54;13.80;99.90
21176;DHT22;10746;50.178;8.186;2023-06-14T01:17:22;13.80;99.90
21176;DHT22;10746;50.178;8.186;2023-06-14T01:19:52;13.80;99.90
21176;DHT22;10746;50.178;8.186;2023-06-14T01:22:24;13.80;99.90
21176;DHT22;10746;50.178;8.186;2023-06-14T01:24:53;13.70;99.90
21176;DHT22;10746;50.178;8.186;2023-06-14T01:27:21;13.70;99.90
21176;DHT22;10746;50.178;8.186;2023-06-14T01:29:49;13.60;99.90
21176;DHT22;10746;50.178;8.186;2023-06-14T01:32:17;13.60;99.90
21176;DHT22;10746;50.178;8.186;2023-06-14T01:34:44;13.60;99.90
21176;DHT22;10746;50.178;8.186;2023-06-14T01:37:11;13.50;99.90
21176;DHT22;10746;50.178;8.186;2023-06-14T01:39:39;13.40;99.90
21176;DHT22;10746;50.178;8.186;2023-06-14T01:42:07;13.30;99.90
21176;DHT22;10746;50.178;8.186;2023-06-14T01:44:34;13.20;99.90
21176;DHT22;10746;50.178;8.186;2023-06-14T01:47:01;13.20;99.90
21176;DHT22;10746;50.178;8.186;2023-06-14T01:49:28;13.20;99.90
21176;DHT22;10746;50.178;8.186;2023-06-14T01:51:54;13.20;99.90
21176;DHT22;10746;50.178;8.186;2023-06-14T01:54:21;13.20;99.90
21176;DHT22;10746;50.178;8.186;2023-06-14T01:56:48;12.90;99.90
21176;DHT22;10746;50.178;8.186;2023-06-14T01:59:16;12.80;99.90
21176;DHT22;10746;50.178;8.186;2023-06-14T02:01:43;12.70;99.90
21176;DHT22;10746;50.178;8.186;2023-06-14T02:04:11;12.70;99.90
21176;DHT22;10746;50.178;8.186;2023-06-14T02:06:38;12.70;99.90
21176;DHT22;10746;50.178;8.186;2023-06-14T02:09:05;12.80;99.90
21176;DHT22;10746;50.178;8.186;2023-06-14T02:11:32;12.80;99.90
21176;DHT22;10746;50.178;8.186;2023-06-14T02:13:58;12.80;99.90
21176;DHT22;10746;50.178;8.186;2023-06-14T02:16:27;12.90;99.90
21176;DHT22;10746;50.178;8.186;2023-06-14T02:18:55;12.80;99.90
21176;DHT22;10746;50.178;8.186;2023-06-14T02:21:22;12.70;99.90
21176;DHT22;10746;50.178;8.186;2023-06-14T02:23:49;12.60;99.90
21176;DHT22;10746;50.178;8.186;2023-06-14T02:29:41;12.40;99.90
21176;DHT22;10746;50.178;8.186;2023-06-14T02:32:09;12.40;99.90
21176;DHT22;10746;50.178;8.186;2023-06-14T02:34:36;12.40;99.90
21176;DHT22;10746;50.178;8.186;2023-06-14T02:37:06;12.30;99.90
21176;DHT22;10746;50.178;8.186;2023-06-14T02:39:33;12.30;99.90
21176;DHT22;10746;50.178;8.186;2023-06-14T02:42:02;12.20;99.90
21176;DHT22;10746;50.178;8.186;2023-06-14T02:44:29;12.20;99.90
21176;DHT22;10746;50.178;8.186;2023-06-14T02:46:56;12.20;99.90
21176;DHT22;10746;50.178;8.186;2023-06-14T02:49:25;12.10;99.90
21176;DHT22;10746;50.178;8.186;2023-06-14T02:51:52;12.00;99.90
21176;DHT22;10746;50.178;8.186;2023-06-14T02:54:19;12.00;99.90
21176;DHT22;10746;50.178;8.186;2023-06-14T02:56:47;12.00;99.90
21176;DHT22;10746;50.178;8.186;2023-06-14T02:59:14;12.00;99.90
21176;DHT22;10746;50.178;8.186;2023-06-14T03:01:41;11.90;99.90
21176;DHT22;10746;50.178;8.186;2023-06-14T03:04:08;12.00;99.90
21176;DHT22;10746;50.178;8.186;2023-06-14T03:06:36;12.00;99.90
21176;DHT22;10746;50.178;8.186;2023-06-14T03:09:05;12.00;99.90
21176;DHT22;10746;50.178;8.186;2023-06-14T03:11:32;12.10;99.90
21176;DHT22;10746;50.178;8.186;2023-06-14T03:14:00;12.10;99.90
21176;DHT22;10746;50.178;8.186;2023-06-14T03:16:29;12.10;99.90
21176;DHT22;10746;50.178;8.186;2023-06-14T03:18:57;12.10;99.90
21176;DHT22;10746;50.178;8.186;2023-06-14T03:21:23;12.00;99.90
21176;DHT22;10746;50.178;8.186;2023-06-14T03:23:52;11.90;99.90
21176;DHT22;10746;50.178;8.186;2023-06-14T03:26:19;11.90;99.90
21176;DHT22;10746;50.178;8.186;2023-06-14T03:28:47;11.80;99.90
21176;DHT22;10746;50.178;8.186;2023-06-14T03:31:15;11.80;99.90
21176;DHT22;10746;50.178;8.186;2023-06-14T03:33:42;11.70;99.90
21176;DHT22;10746;50.178;8.186;2023-06-14T03:36:09;11.60;99.90
21176;DHT22;10746;50.178;8.186;2023-06-14T03:38:35;11.60;99.90
21176;DHT22;10746;50.178;8.186;2023-06-14T03:41:03;11.60;99.90
21176;DHT22;10746;50.178;8.186;2023-06-14T03:43:30;11.60;99.90
21176;DHT22;10746;50.178;8.186;2023-06-14T03:45:57;11.60;99.90
21176;DHT22;10746;50.178;8.186;2023-06-14T03:48:24;11.50;99.90
21176;DHT22;10746;50.178;8.186;2023-06-14T03:50:51;11.50;99.90
21176;DHT22;10746;50.178;8.186;2023-06-14T03:53:19;11.60;99.90
21176;DHT22;10746;50.178;8.186;2023-06-14T03:55:46;11.70;99.90
21176;DHT22;10746;50.178;8.186;2023-06-14T03:58:15;12.00;99.90
21176;DHT22;10746;50.178;8.186;2023-06-14T04:00:43;12.10;99.90
21176;DHT22;10746;50.178;8.186;2023-06-14T04:03:10;12.30;99.90
21176;DHT22;10746;50.178;8.186;2023-06-14T04:05:39;12.40;99.90
21176;DHT22;10746;50.178;8.186;2023-06-14T04:08:07;12.40;99.90
21176;DHT22;10746;50.178;8.186;2023-06-14T04:10:34;12.30;99.90
21176;DHT22;10746;50.178;8.186;2023-06-14T04:13:01;12.20;99.90
21176;DHT22;10746;50.178;8.186;2023-06-14T04:15:29;12.10;99.90
21176;DHT22;10746;50.178;8.186;2023-06-14T04:17:57;12.10;99.90
21176;DHT22;10746;50.178;8.186;2023-06-14T04:20:24;12.10;99.90
21176;DHT22;10746;50.178;8.186;2023-06-14T04:22:51;12.20;99.90
21176;DHT22;10746;50.178;8.186;2023-06-14T04:25:18;12.40;99.90
21176;DHT22;10746;50.178;8.186;2023-06-14T04:27:46;12.50;99.90
21176;DHT22;10746;50.178;8.186;2023-06-14T04:30:13;12.90;99.90
21176;DHT22;10746;50.178;8.186;2023-06-14T04:32:41;13.10;99.90
21176;DHT22;10746;50.178;8.186;2023-06-14T04:35:08;13.30;99.90
21176;DHT22;10746;50.178;8.186;2023-06-14T04:37:36;13.40;99.90
21176;DHT22;10746;50.178;8.186;2023-06-14T04:40:06;13.50;99.90
21176;DHT22;10746;50.178;8.186;2023-06-14T04:42:33;13.60;99.90
21176;DHT22;10746;50.178;8.186;2023-06-14T04:45:02;13.70;99.90
21176;DHT22;10746;50.178;8.186;2023-06-14T04:47:29;13.90;99.90
21176;DHT22;10746;50.178;8.186;2023-06-14T04:49:59;14.20;99.90
21176;DHT22;10746;50.178;8.186;2023-06-14T04:52:26;14.40;99.90
21176;DHT22;10746;50.178;8.186;2023-06-14T04:54:55;14.70;99.90
21176;DHT22;10746;50.178;8.186;2023-06-14T04:57:22;14.80;99.90
21176;DHT22;10746;50.178;8.186;2023-06-14T04:59:51;14.90;99.90
21176;DHT22;10746;50.178;8.186;2023-06-14T05:02:21;15.10;99.90
21176;DHT22;10746;50.178;8.186;2023-06-14T05:04:49;15.10;99.90
21176;DHT22;10746;50.178;8.186;2023-06-14T05:07:17;15.40;99.90
21176;DHT22;10746;50.178;8.186;2023-06-14T05:09:44;15.60;99.90
21176;DHT22;10746;50.178;8.186;2023-06-14T05:12:11;15.80;99.90
21176;DHT22;10746;50.178;8.186;2023-06-14T05:14:38;16.00;99.90
21176;DHT22;10746;50.178;8.186;2023-06-14T05:17:06;16.20;99.90
21176;DHT22;10746;50.178;8.186;2023-06-14T05:19:32;16.40;99.90
21176;DHT22;10746;50.178;8.186;2023-06-14T05:21:59;16.60;99.90
21176;DHT22;10746;50.178;8.186;2023-06-14T05:24:29;16.60;99.90
21176;DHT22;10746;50.178;8.186;2023-06-14T05:26:57;16.70;99.90
21176;DHT22;10746;50.178;8.186;2023-06-14T05:29:24;16.90;99.90
21176;DHT22;10746;50.178;8.186;2023-06-14T05:31:51;16.80;99.90
21176;DHT22;10746;50.178;8.186;2023-06-14T05:34:18;17.10;99.90
21176;DHT22;10746;50.178;8.186;2023-06-14T05:36:45;17.20;99.90
21176;DHT22;10746;50.178;8.186;2023-06-14T05:39:12;17.30;99.90
21176;DHT22;10746;50.178;8.186;2023-06-14T05:41:41;17.30;99.90
21176;DHT22;10746;50.178;8.186;2023-06-14T05:44:09;17.40;99.90
21176;DHT22;10746;50.178;8.186;2023-06-14T05:46:35;17.30;99.90
21176;DHT22;10746;50.178;8.186;2023-06-14T05:49:02;17.50;99.90
21176;DHT22;10746;50.178;8.186;2023-06-14T05:51:29;17.60;99.90
21176;DHT22;10746;50.178;8.186;2023-06-14T05:53:55;17.70;99.90
21176;DHT22;10746;50.178;8.186;2023-06-14T05:56:22;17.80;99.90
21176;DHT22;10746;50.178;8.186;2023-06-14T05:58:50;17.90;99.90
21176;DHT22;10746;50.178;8.186;2023-06-14T06:01:17;17.80;99.90
21176;DHT22;10746;50.178;8.186;2023-06-14T06:03:44;17.70;99.90
21176;DHT22;10746;50.178;8.186;2023-06-14T06:06:13;17.80;99.90
21176;DHT22;10746;50.178;8.186;2023-06-14T06:08:42;17.50;99.90
21176;DHT22;10746;50.178;8.186;2023-06-14T06:11:12;17.40;99.90
21176;DHT22;10746;50.178;8.186;2023-06-14T06:13:38;17.50;99.90
21176;DHT22;10746;50.178;8.186;2023-06-14T06:16:07;17.50;99.90
21176;DHT22;10746;50.178;8.186;2023-06-14T06:18:34;17.50;99.90
21176;DHT22;10746;50.178;8.186;2023-06-14T06:21:03;17.70;99.90
21176;DHT22;10746;50.178;8.186;2023-06-14T06:23:29;17.80;99.90
21176;DHT22;10746;50.178;8.186;2023-06-14T06:25:56;17.80;99.90
21176;DHT22;10746;50.178;8.186;2023-06-14T06:28:23;17.90;99.90
21176;DHT22;10746;50.178;8.186;2023-06-14T06:30:50;18.00;99.90
21176;DHT22;10746;50.178;8.186;2023-06-14T06:33:18;17.90;99.90
21176;DHT22;10746;50.178;8.186;2023-06-14T06:35:45;18.10;99.90
21176;DHT22;10746;50.178;8.186;2023-06-14T06:38:11;17.90;99.90
21176;DHT22;10746;50.178;8.186;2023-06-14T06:40:39;17.60;99.90
21176;DHT22;10746;50.178;8.186;2023-06-14T06:43:05;17.50;99.90
21176;DHT22;10746;50.178;8.186;2023-06-14T06:45:32;17.60;99.90
21176;DHT22;10746;50.178;8.186;2023-06-14T06:47:59;17.90;99.90
21176;DHT22;10746;50.178;8.186;2023-06-14T06:50:27;18.10;99.90
21176;DHT22;10746;50.178;8.186;2023-06-14T06:52:54;18.40;99.90
21176;DHT22;10746;50.178;8.186;2023-06-14T06:55:20;18.50;99.90
21176;DHT22;10746;50.178;8.186;2023-06-14T06:57:47;18.40;99.90
21176;DHT22;10746;50.178;8.186;2023-06-14T07:00:16;18.30;99.90
21176;DHT22;10746;50.178;8.186;2023-06-14T07:02:43;18.30;99.90
21176;DHT22;10746;50.178;8.186;2023-06-14T07:05:10;18.20;99.90
21176;DHT22;10746;50.178;8.186;2023-06-14T07:07:38;18.30;99.90
21176;DHT22;10746;50.178;8.186;2023-06-14T07:10:06;18.20;99.90
21176;DHT22;10746;50.178;8.186;2023-06-14T07:12:33;18.50;99.90
21176;DHT22;10746;50.178;8.186;2023-06-14T07:15:05;18.90;99.90
21176;DHT22;10746;50.178;8.186;2023-06-14T07:17:33;18.80;99.90
21176;DHT22;10746;50.178;8.186;2023-06-14T07:20:02;18.80;99.90
21176;DHT22;10746;50.178;8.186;2023-06-14T07:22:39;19.20;99.90
21176;DHT22;10746;50.178;8.186;2023-06-14T07:25:08;19.10;99.90
21176;DHT22;10746;50.178;8.186;2023-06-14T07:27:35;19.20;99.90
21176;DHT22;10746;50.178;8.186;2023-06-14T07:30:02;19.30;99.90
21176;DHT22;10746;50.178;8.186;2023-06-14T07:32:28;19.20;99.90
21176;DHT22;10746;50.178;8.186;2023-06-14T07:34:55;19.30;99.90
21176;DHT22;10746;50.178;8.186;2023-06-14T07:37:22;18.90;99.90
21176;DHT22;10746;50.178;8.186;2023-06-14T07:39:50;19.20;99.90
21176;DHT22;10746;50.178;8.186;2023-06-14T07:42:17;19.50;99.90
21176;DHT22;10746;50.178;8.186;2023-06-14T07:44:43;19.80;99.90
21176;DHT22;10746;50.178;8.186;2023-06-14T07:47:10;19.90;99.90
21176;DHT22;10746;50.178;8.186;2023-06-14T07:49:37;19.00;99.90
21176;DHT22;10746;50.178;8.186;2023-06-14T07:52:04;18.90;99.90
21176;DHT22;10746;50.178;8.186;2023-06-14T07:54:31;19.10;99.90
21176;DHT22;10746;50.178;8.186;2023-06-14T07:56:59;19.00;99.90
21176;DHT22;10746;50.178;8.186;2023-06-14T07:59:26;18.90;99.90
21176;DHT22;10746;50.178;8.186;2023-06-14T08:01:53;19.00;99.90
21176;DHT22;10746;50.178;8.186;2023-06-14T08:04:20;18.70;99.90
21176;DHT22;10746;50.178;8.186;2023-06-14T08:06:47;18.90;99.90
21176;DHT22;10746;50.178;8.186;2023-06-14T08:09:13;19.10;99.90
21176;DHT22;10746;50.178;8.186;2023-06-14T08:11:40;19.10;99.90
21176;DHT22;10746;50.178;8.186;2023-06-14T08:14:08;19.20;99.90
21176;DHT22;10746;50.178;8.186;2023-06-14T08:16:35;18.90;99.90
21176;DHT22;10746;50.178;8.186;2023-06-14T08:19:03;19.20;99.90
21176;DHT22;10746;50.178;8.186;2023-06-14T08:21:30;19.50;99.90
21176;DHT22;10746;50.178;8.186;2023-06-14T08:23:59;19.50;99.90
21176;DHT22;10746;50.178;8.186;2023-06-14T08:26:25;19.20;99.90
21176;DHT22;10746;50.178;8.186;2023-06-14T08:28:54;19.50;99.90
21176;DHT22;10746;50.178;8.186;2023-06-14T08:31:22;19.00;99.90
21176;DHT22;10746;50.178;8.186;2023-06-14T08:33:49;19.20;99.90
21176;DHT22;10746;50.178;8.186;2023-06-14T08:36:16;19.50;99.90
21176;DHT22;10746;50.178;8.186;2023-06-14T08:38:43;19.50;99.90
21176;DHT22;10746;50.178;8.186;2023-06-14T08:41:11;19.80;99.90
21176;DHT22;10746;50.178;8.186;2023-06-14T08:43:39;20.00;99.90
21176;DHT22;10746;50.178;8.186;2023-06-14T08:46:06;20.20;99.90
21176;DHT22;10746;50.178;8.186;2023-06-14T08:48:39;20.30;99.90
21176;DHT22;10746;50.178;8.186;2023-06-14T08:51:06;20.00;99.90
21176;DHT22;10746;50.178;8.186;2023-06-14T08:53:34;20.10;99.90
21176;DHT22;10746;50.178;8.186;2023-06-14T08:56:08;19.50;99.90
21176;DHT22;10746;50.178;8.186;2023-06-14T08:58:39;19.60;99.90
21176;DHT22;10746;50.178;8.186;2023-06-14T09:01:09;19.70;99.90
21176;DHT22;10746;50.178;8.186;2023-06-14T09:03:38;20.30;99.90
21176;DHT22;10746;50.178;8.186;2023-06-14T09:06:06;20.20;99.90
21176;DHT22;10746;50.178;8.186;2023-06-14T09:08:34;20.00;99.90
21176;DHT22;10746;50.178;8.186;2023-06-14T09:11:01;20.00;99.90
21176;DHT22;10746;50.178;8.186;2023-06-14T09:13:28;19.90;99.90
21176;DHT22;10746;50.178;8.186;2023-06-14T09:15:55;20.10;99.90
21176;DHT22;10746;50.178;8.186;2023-06-14T09:18:22;20.30;99.90
21176;DHT22;10746;50.178;8.186;2023-06-14T09:21:01;20.60;99.90
21176;DHT22;10746;50.178;8.186;2023-06-14T09:23:27;20.90;99.90
21176;DHT22;10746;50.178;8.186;2023-06-14T09:25:54;20.60;99.90
21176;DHT22;10746;50.178;8.186;2023-06-14T09:28:27;20.50;99.90
21176;DHT22;10746;50.178;8.186;2023-06-14T09:30:54;19.50;99.90
21176;DHT22;10746;50.178;8.186;2023-06-14T09:33:21;19.50;99.90
21176;DHT22;10746;50.178;8.186;2023-06-14T09:35:51;19.50;99.90
21176;DHT22;10746;50.178;8.186;2023-06-14T09:38:19;19.30;99.90
21176;DHT22;10746;50.178;8.186;2023-06-14T09:40:46;19.60;99.90
21176;DHT22;10746;50.178;8.186;2023-06-14T09:43:12;19.80;99.90
21176;DHT22;10746;50.178;8.186;2023-06-14T09:45:39;19.50;99.90
21176;DHT22;10746;50.178;8.186;2023-06-14T09:48:07;19.80;99.90
21176;DHT22;10746;50.178;8.186;2023-06-14T09:50:33;20.20;99.90
21176;DHT22;10746;50.178;8.186;2023-06-14T09:53:03;20.30;99.90
21176;DHT22;10746;50.178;8.186;2023-06-14T09:55:35;19.80;99.90
21176;DHT22;10746;50.178;8.186;2023-06-14T09:58:05;19.60;99.90
21176;DHT22;10746;50.178;8.186;2023-06-14T10:00:32;19.70;99.90
21176;DHT22;10746;50.178;8.186;2023-06-14T10:03:05;19.80;99.90
21176;DHT22;10746;50.178;8.186;2023-06-14T10:05:34;19.50;99.90
21176;DHT22;10746;50.178;8.186;2023-06-14T10:08:07;19.70;99.90
21176;DHT22;10746;50.178;8.186;2023-06-14T10:10:36;19.70;99.90
21176;DHT22;10746;50.178;8.186;2023-06-14T10:13:05;19.90;99.90
21176;DHT22;10746;50.178;8.186;2023-06-14T10:15:37;20.00;99.90
21176;DHT22;10746;50.178;8.186;2023-06-14T10:18:10;19.70;99.90
21176;DHT22;10746;50.178;8.186;2023-06-14T10:20:45;19.90;99.90
21176;DHT22;10746;50.178;8.186;2023-06-14T10:23:18;19.70;99.90
21176;DHT22;10746;50.178;8.186;2023-06-14T10:25:49;19.60;99.90
21176;DHT22;10746;50.178;8.186;2023-06-14T10:28:17;19.90;99.90
21176;DHT22;10746;50.178;8.186;2023-06-14T10:31:06;19.50;99.90
21176;DHT22;10746;50.178;8.186;2023-06-14T10:33:35;19.90;99.90
21176;DHT22;10746;50.178;8.186;2023-06-14T10:36:27;20.00;99.90
21176;DHT22;10746;50.178;8.186;2023-06-14T10:39:00;20.50;99.90
21176;DHT22;10746;50.178;8.186;2023-06-14T10:41:29;20.50;99.90
21176;DHT22;10746;50.178;8.186;2023-06-14T10:44:38;20.50;99.90
21176;DHT22;10746;50.178;8.186;2023-06-14T10:47:08;19.80;99.90
21176;DHT22;10746;50.178;8.186;2023-06-14T10:49:41;19.90;99.90
21176;DHT22;10746;50.178;8.186;2023-06-14T10:52:09;19.40;99.90
21176;DHT22;10746;50.178;8.186;2023-06-14T10:55:03;19.60;99.90
21176;DHT22;10746;50.178;8.186;2023-06-14T10:57:33;20.20;99.90
21176;DHT22;10746;50.178;8.186;2023-06-14T11:00:01;20.10;99.90
21176;DHT22;10746;50.178;8.186;2023-06-14T11:03:04;20.50;99.90
21176;DHT22;10746;50.178;8.186;2023-06-14T11:05:48;20.60;99.90
21176;DHT22;10746;50.178;8.186;2023-06-14T11:11:31;20.80;99.90
21176;DHT22;10746;50.178;8.186;2023-06-14T11:14:00;20.60;99.90
21176;DHT22;10746;50.178;8.186;2023-06-14T11:16:28;20.60;99.90
21176;DHT22;10746;50.178;8.186;2023-06-14T11:18:55;20.40;99.90
21176;DHT22;10746;50.178;8.186;2023-06-14T11:21:21;19.80;99.90
21176;DHT22;10746;50.178;8.186;2023-06-14T11:23:51;19.90;99.90
21176;DHT22;10746;50.178;8.186;2023-06-14T11:26:24;20.30;99.90
21176;DHT22;10746;50.178;8.186;2023-06-14T11:28:56;21.00;99.90
21176;DHT22;10746;50.178;8.186;2023-06-14T11:31:25;21.70;99.90
21176;DHT22;10746;50.178;8.186;2023-06-14T11:33:53;21.10;99.90
21176;DHT22;10746;50.178;8.186;2023-06-14T11:36:20;20.30;99.90
21176;DHT22;10746;50.178;8.186;2023-06-14T11:38:47;19.50;99.90
21176;DHT22;10746;50.178;8.186;2023-06-14T11:41:14;19.40;99.90
21176;DHT22;10746;50.178;8.186;2023-06-14T11:43:41;19.90;99.90
21176;DHT22;10746;50.178;8.186;2023-06-14T11:46:12;20.50;99.90
21176;DHT22;10746;50.178;8.186;2023-06-14T11:48:42;20.90;99.90
21176;DHT22;10746;50.178;8.186;2023-06-14T11:51:10;21.30;99.90
21176;DHT22;10746;50.178;8.186;2023-06-14T11:53:37;21.20;99.90
21176;DHT22;10746;50.178;8.186;2023-06-14T11:56:05;21.60;99.90
21176;DHT22;10746;50.178;8.186;2023-06-14T11:58:32;21.40;99.90
21176;DHT22;10746;50.178;8.186;2023-06-14T12:00:58;21.10;99.90
21176;DHT22;10746;50.178;8.186;2023-06-14T12:03:26;21.40;99.90
21176;DHT22;10746;50.178;8.186;2023-06-14T12:06:04;21.40;99.90
21176;DHT22;10746;50.178;8.186;2023-06-14T12:08:33;21.70;99.90
21176;DHT22;10746;50.178;8.186;2023-06-14T12:11:06;20.80;99.90
21176;DHT22;10746;50.178;8.186;2023-06-14T12:13:34;21.20;99.90
21176;DHT22;10746;50.178;8.186;2023-06-14T12:16:01;21.60;99.90
21176;DHT22;10746;50.178;8.186;2023-06-14T12:18:33;21.90;99.90
21176;DHT22;10746;50.178;8.186;2023-06-14T12:21:02;21.40;99.90
21176;DHT22;10746;50.178;8.186;2023-06-14T12:23:45;21.30;99.90
21176;DHT22;10746;50.178;8.186;2023-06-14T12:26:13;21.50;99.90
21176;DHT22;10746;50.178;8.186;2023-06-14T12:28:41;21.20;99.90
21176;DHT22;10746;50.178;8.186;2023-06-14T12:31:08;20.60;99.90
21176;DHT22;10746;50.178;8.186;2023-06-14T12:33:35;20.60;99.90
21176;DHT22;10746;50.178;8.186;2023-06-14T12:36:05;21.00;99.90
21176;DHT22;10746;50.178;8.186;2023-06-14T12:38:32;21.60;99.90
21176;DHT22;10746;50.178;8.186;2023-06-14T12:40:59;22.20;99.90
21176;DHT22;10746;50.178;8.186;2023-06-14T12:43:27;22.40;99.90
21176;DHT22;10746;50.178;8.186;2023-06-14T12:45:54;22.10;99.90
21176;DHT22;10746;50.178;8.186;2023-06-14T12:48:21;21.70;99.90
21176;DHT22;10746;50.178;8.186;2023-06-14T12:50:48;21.00;99.90
21176;DHT22;10746;50.178;8.186;2023-06-14T12:53:16;20.90;99.90
21176;DHT22;10746;50.178;8.186;2023-06-14T12:55:43;21.20;99.90
21176;DHT22;10746;50.178;8.186;2023-06-14T12:58:10;21.10;99.90
21176;DHT22;10746;50.178;8.186;2023-06-14T13:00:38;20.60;99.90
21176;DHT22;10746;50.178;8.186;2023-06-14T13:03:05;21.00;99.90
21176;DHT22;10746;50.178;8.186;2023-06-14T13:05:32;21.70;99.90
21176;DHT22;10746;50.178;8.186;2023-06-14T13:07:59;22.50;99.90
21176;DHT22;10746;50.178;8.186;2023-06-14T13:10:27;22.20;99.90
21176;DHT22;10746;50.178;8.186;2023-06-14T13:12:54;22.40;99.90
21176;DHT22;10746;50.178;8.186;2023-06-14T13:15:23;22.50;99.90
21176;DHT22;10746;50.178;8.186;2023-06-14T13:17:50;22.50;99.90
21176;DHT22;10746;50.178;8.186;2023-06-14T13:20:17;22.90;99.90
21176;DHT22;10746;50.178;8.186;2023-06-14T13:22:43;23.20;99.90
21176;DHT22;10746;50.178;8.186;2023-06-14T13:25:10;22.40;99.90
21176;DHT22;10746;50.178;8.186;2023-06-14T13:27:38;21.10;99.90
21176;DHT22;10746;50.178;8.186;2023-06-14T13:30:06;21.00;99.90
21176;DHT22;10746;50.178;8.186;2023-06-14T13:32:34;20.70;99.90
21176;DHT22;10746;50.178;8.186;2023-06-14T13:35:01;20.70;99.90
21176;DHT22;10746;50.178;8.186;2023-06-14T13:37:29;20.80;99.90
21176;DHT22;10746;50.178;8.186;2023-06-14T13:39:56;20.80;99.90
21176;DHT22;10746;50.178;8.186;2023-06-14T13:42:23;20.70;99.90
21176;DHT22;10746;50.178;8.186;2023-06-14T13:44:51;20.80;99.90
21176;DHT22;10746;50.178;8.186;2023-06-14T13:47:18;21.50;99.90
21176;DHT22;10746;50.178;8.186;2023-06-14T13:49:44;22.50;99.90
21176;DHT22;10746;50.178;8.186;2023-06-14T13:52:11;23.30;99.90
21176;DHT22;10746;50.178;8.186;2023-06-14T13:54:39;23.20;99.90
21176;DHT22;10746;50.178;8.186;2023-06-14T13:57:06;22.70;99.90
21176;DHT22;10746;50.178;8.186;2023-06-14T13:59:33;23.20;99.90
21176;DHT22;10746;50.178;8.186;2023-06-14T14:02:01;21.70;99.90
21176;DHT22;10746;50.178;8.186;2023-06-14T14:04:29;21.30;99.90
21176;DHT22;10746;50.178;8.186;2023-06-14T14:06:55;21.10;99.90
21176;DHT22;10746;50.178;8.186;2023-06-14T14:09:22;21.10;99.90
21176;DHT22;10746;50.178;8.186;2023-06-14T14:11:49;21.20;99.90
21176;DHT22;10746;50.178;8.186;2023-06-14T14:14:16;21.40;99.90
21176;DHT22;10746;50.178;8.186;2023-06-14T14:16:43;22.10;99.90
21176;DHT22;10746;50.178;8.186;2023-06-14T14:19:11;23.80;99.90
21176;DHT22;10746;50.178;8.186;2023-06-14T14:21:38;24.10;99.90
21176;DHT22;10746;50.178;8.186;2023-06-14T14:24:05;23.70;99.90
21176;DHT22;10746;50.178;8.186;2023-06-14T14:26:32;22.40;99.90
21176;DHT22;10746;50.178;8.186;2023-06-14T14:28:59;21.70;99.90
21176;DHT22;10746;50.178;8.186;2023-06-14T14:31:26;21.50;99.90
21176;DHT22;10746;50.178;8.186;2023-06-14T14:33:52;21.10;99.90
21176;DHT22;10746;50.178;8.186;2023-06-14T14:36:21;21.10;99.90
21176;DHT22;10746;50.178;8.186;2023-06-14T14:38:47;21.10;99.90
21176;DHT22;10746;50.178;8.186;2023-06-14T14:41:14;21.20;99.90
21176;DHT22;10746;50.178;8.186;2023-06-14T14:43:41;22.30;99.90
21176;DHT22;10746;50.178;8.186;2023-06-14T14:46:08;22.80;99.90
21176;DHT22;10746;50.178;8.186;2023-06-14T14:48:35;22.60;99.90
21176;DHT22;10746;50.178;8.186;2023-06-14T14:51:01;23.00;99.90
21176;DHT22;10746;50.178;8.186;2023-06-14T14:53:30;22.70;99.90
21176;DHT22;10746;50.178;8.186;2023-06-14T14:55:56;22.20;99.90
21176;DHT22;10746;50.178;8.186;2023-06-14T14:58:23;21.80;99.90
21176;DHT22;10746;50.178;8.186;2023-06-14T15:00:50;21.50;99.90
21176;DHT22;10746;50.178;8.186;2023-06-14T15:03:17;21.40;99.90
21176;DHT22;10746;50.178;8.186;2023-06-14T15:05:43;22.10;99.90
21176;DHT22;10746;50.178;8.186;2023-06-14T15:08:10;23.30;99.90
21176;DHT22;10746;50.178;8.186;2023-06-14T15:10:39;23.70;99.90
21176;DHT22;10746;50.178;8.186;2023-06-14T15:13:07;23.40;99.90
21176;DHT22;10746;50.178;8.186;2023-06-14T15:15:34;24.10;99.90
21176;DHT22;10746;50.178;8.186;2023-06-14T15:18:01;24.50;99.90
21176;DHT22;10746;50.178;8.186;2023-06-14T15:20:28;24.20;99.90
21176;DHT22;10746;50.178;8.186;2023-06-14T15:22:55;23.90;99.90
21176;DHT22;10746;50.178;8.186;2023-06-14T15:25:25;23.60;99.90
21176;DHT22;10746;50.178;8.186;2023-06-14T15:27:53;23.30;99.90
21176;DHT22;10746;50.178;8.186;2023-06-14T15:30:20;23.90;99.90
21176;DHT22;10746;50.178;8.186;2023-06-14T15:32:47;24.80;99.90
21176;DHT22;10746;50.178;8.186;2023-06-14T15:35:15;25.70;99.90
21176;DHT22;10746;50.178;8.186;2023-06-14T15:37:42;25.20;99.90
21176;DHT22;10746;50.178;8.186;2023-06-14T15:40:10;24.40;99.90
21176;DHT22;10746;50.178;8.186;2023-06-14T15:42:36;24.00;99.90